sensor_id;sensor_type;location;lat;lon;timestamp;P1;durP1;ratioP1;P2;durP2;ratioP2
43813;SDS011;29669;55.706;37.656;2023-12-20T00:02:08;3.88;;;2.33;;
43813;SDS011;29669;55.706;37.656;2023-12-20T00:04:35;3.60;;;1.98;;
43813;SDS011;29669;55.706;37.656;2023-12-20T00:07:03;6.00;;;2.30;;
43813;SDS011;29669;55.706;37.656;2023-12-20T00:09:31;2.80;;;1.98;;
43813;SDS011;29669;55.706;37.656;2023-12-20T00:11:58;2.90;;;1.90;;
43813;SDS011;29669;55.706;37.656;2023-12-20T00:14:26;4.75;;;2.33;;
43813;SDS011;29669;55.706;37.656;2023-12-20T00:16:53;2.90;;;2.13;;
43813;SDS011;29669;55.706;37.656;2023-12-20T00:19:20;2.55;;;2.10;;
43813;SDS011;29669;55.706;37.656;2023-12-20T00:21:48;2.30;;;2.10;;
43813;SDS011;29669;55.706;37.656;2023-12-20T00:24:15;2.85;;;2.13;;
43813;SDS011;29669;55.706;37.656;2023-12-20T00:26:43;2.55;;;1.90;;
43813;SDS011;29669;55.706;37.656;2023-12-20T00:29:10;4.60;;;2.08;;
43813;SDS011;29669;55.706;37.656;2023-12-20T00:31:38;2.53;;;2.10;;
43813;SDS011;29669;55.706;37.656;2023-12-20T00:34:05;2.60;;;2.38;;
43813;SDS011;29669;55.706;37.656;2023-12-20T00:36:33;3.33;;;2.50;;
43813;SDS011;29669;55.706;37.656;2023-12-20T00:39:00;3.20;;;2.25;;
43813;SDS011;29669;55.706;37.656;2023-12-20T00:41:28;2.65;;;2.10;;
43813;SDS011;29669;55.706;37.656;2023-12-20T00:43:55;2.03;;;1.73;;
43813;SDS011;29669;55.706;37.656;2023-12-20T00:46:23;2.58;;;1.70;;
43813;SDS011;29669;55.706;37.656;2023-12-20T00:48:50;3.58;;;2.10;;
43813;SDS011;29669;55.706;37.656;2023-12-20T00:51:18;2.03;;;1.83;;
43813;SDS011;29669;55.706;37.656;2023-12-20T00:53:45;3.78;;;1.88;;
43813;SDS011;29669;55.706;37.656;2023-12-20T00:56:16;2.88;;;2.47;;
43813;SDS011;29669;55.706;37.656;2023-12-20T00:58:44;2.03;;;1.85;;
43813;SDS011;29669;55.706;37.656;2023-12-20T01:01:11;2.65;;;2.10;;
43813;SDS011;29669;55.706;37.656;2023-12-20T01:03:38;4.10;;;2.00;;
43813;SDS011;29669;55.706;37.656;2023-12-20T01:06:06;4.93;;;2.20;;
43813;SDS011;29669;55.706;37.656;2023-12-20T01:08:33;2.75;;;2.15;;
43813;SDS011;29669;55.706;37.656;2023-12-20T01:11:03;2.58;;;2.25;;
43813;SDS011;29669;55.706;37.656;2023-12-20T01:13:32;4.90;;;2.65;;
43813;SDS011;29669;55.706;37.656;2023-12-20T01:15:59;2.40;;;2.20;;
43813;SDS011;29669;55.706;37.656;2023-12-20T01:18:27;2.35;;;2.15;;
43813;SDS011;29669;55.706;37.656;2023-12-20T01:20:55;3.90;;;2.35;;
43813;SDS011;29669;55.706;37.656;2023-12-20T01:23:22;2.97;;;1.77;;
43813;SDS011;29669;55.706;37.656;2023-12-20T01:25:49;2.92;;;2.08;;
43813;SDS011;29669;55.706;37.656;2023-12-20T01:28:17;5.53;;;2.20;;
43813;SDS011;29669;55.706;37.656;2023-12-20T01:30:44;5.93;;;2.17;;
43813;SDS011;29669;55.706;37.656;2023-12-20T01:33:12;5.05;;;2.15;;
43813;SDS011;29669;55.706;37.656;2023-12-20T01:35:39;2.65;;;2.45;;
43813;SDS011;29669;55.706;37.656;2023-12-20T01:38:06;3.47;;;2.30;;
43813;SDS011;29669;55.706;37.656;2023-12-20T01:40:34;5.97;;;2.22;;
43813;SDS011;29669;55.706;37.656;2023-12-20T01:43:02;3.83;;;2.33;;
43813;SDS011;29669;55.706;37.656;2023-12-20T01:45:34;1.80;;;1.70;;
43813;SDS011;29669;55.706;37.656;2023-12-20T01:48:02;2.17;;;1.98;;
43813;SDS011;29669;55.706;37.656;2023-12-20T01:50:32;4.13;;;2.00;;
43813;SDS011;29669;55.706;37.656;2023-12-20T01:53:02;2.00;;;1.70;;
43813;SDS011;29669;55.706;37.656;2023-12-20T01:55:33;1.67;;;1.48;;
43813;SDS011;29669;55.706;37.656;2023-12-20T01:58:03;5.07;;;2.10;;
43813;SDS011;29669;55.706;37.656;2023-12-20T02:00:31;3.63;;;1.60;;
43813;SDS011;29669;55.706;37.656;2023-12-20T02:03:02;4.43;;;1.60;;
43813;SDS011;29669;55.706;37.656;2023-12-20T02:05:30;4.25;;;1.90;;
43813;SDS011;29669;55.706;37.656;2023-12-20T02:07:59;4.07;;;1.85;;
43813;SDS011;29669;55.706;37.656;2023-12-20T02:10:28;2.60;;;1.55;;
43813;SDS011;29669;55.706;37.656;2023-12-20T02:12:56;4.90;;;1.95;;
43813;SDS011;29669;55.706;37.656;2023-12-20T02:15:23;3.17;;;1.58;;
43813;SDS011;29669;55.706;37.656;2023-12-20T02:17:51;2.28;;;1.27;;
43813;SDS011;29669;55.706;37.656;2023-12-20T02:20:39;1.40;;;1.30;;
43813;SDS011;29669;55.706;37.656;2023-12-20T02:23:06;1.38;;;1.10;;
43813;SDS011;29669;55.706;37.656;2023-12-20T02:25:34;1.38;;;1.08;;
43813;SDS011;29669;55.706;37.656;2023-12-20T02:28:01;4.07;;;1.48;;
43813;SDS011;29669;55.706;37.656;2023-12-20T02:30:29;1.63;;;1.30;;
43813;SDS011;29669;55.706;37.656;2023-12-20T02:32:57;1.60;;;1.40;;
43813;SDS011;29669;55.706;37.656;2023-12-20T02:35:27;1.80;;;1.48;;
43813;SDS011;29669;55.706;37.656;2023-12-20T02:37:54;1.63;;;1.48;;
43813;SDS011;29669;55.706;37.656;2023-12-20T02:40:21;2.90;;;1.60;;
43813;SDS011;29669;55.706;37.656;2023-12-20T02:42:49;2.28;;;1.45;;
43813;SDS011;29669;55.706;37.656;2023-12-20T02:45:16;1.70;;;1.60;;
43813;SDS011;29669;55.706;37.656;2023-12-20T02:47:43;2.35;;;1.27;;
43813;SDS011;29669;55.706;37.656;2023-12-20T02:50:11;1.50;;;1.40;;
43813;SDS011;29669;55.706;37.656;2023-12-20T02:52:39;3.90;;;1.65;;
43813;SDS011;29669;55.706;37.656;2023-12-20T02:55:06;3.97;;;1.95;;
43813;SDS011;29669;55.706;37.656;2023-12-20T02:57:34;1.63;;;1.50;;
43813;SDS011;29669;55.706;37.656;2023-12-20T03:00:03;1.80;;;1.50;;
43813;SDS011;29669;55.706;37.656;2023-12-20T03:02:35;2.08;;;1.70;;
43813;SDS011;29669;55.706;37.656;2023-12-20T03:05:02;1.80;;;1.70;;
43813;SDS011;29669;55.706;37.656;2023-12-20T03:07:30;2.80;;;2.10;;
43813;SDS011;29669;55.706;37.656;2023-12-20T03:09:57;3.30;;;1.88;;
43813;SDS011;29669;55.706;37.656;2023-12-20T03:12:45;2.75;;;1.98;;
43813;SDS011;29669;55.706;37.656;2023-12-20T03:15:12;3.85;;;2.25;;
43813;SDS011;29669;55.706;37.656;2023-12-20T03:17:39;4.10;;;2.30;;
43813;SDS011;29669;55.706;37.656;2023-12-20T03:20:07;5.45;;;2.08;;
43813;SDS011;29669;55.706;37.656;2023-12-20T03:22:35;6.50;;;2.85;;
43813;SDS011;29669;55.706;37.656;2023-12-20T03:25:02;3.63;;;2.50;;
43813;SDS011;29669;55.706;37.656;2023-12-20T03:27:30;5.30;;;2.63;;
43813;SDS011;29669;55.706;37.656;2023-12-20T03:29:57;2.78;;;2.20;;
43813;SDS011;29669;55.706;37.656;2023-12-20T03:32:25;4.68;;;2.88;;
43813;SDS011;29669;55.706;37.656;2023-12-20T03:34:52;3.88;;;2.65;;
43813;SDS011;29669;55.706;37.656;2023-12-20T03:37:21;3.78;;;2.72;;
43813;SDS011;29669;55.706;37.656;2023-12-20T03:39:49;3.47;;;2.15;;
43813;SDS011;29669;55.706;37.656;2023-12-20T03:42:16;3.58;;;2.38;;
43813;SDS011;29669;55.706;37.656;2023-12-20T03:44:44;7.20;;;2.45;;
43813;SDS011;29669;55.706;37.656;2023-12-20T03:47:11;3.00;;;2.40;;
43813;SDS011;29669;55.706;37.656;2023-12-20T03:49:39;4.55;;;2.92;;
43813;SDS011;29669;55.706;37.656;2023-12-20T03:52:06;4.80;;;2.83;;
43813;SDS011;29669;55.706;37.656;2023-12-20T03:54:37;4.97;;;2.42;;
43813;SDS011;29669;55.706;37.656;2023-12-20T03:57:04;2.75;;;2.50;;
43813;SDS011;29669;55.706;37.656;2023-12-20T03:59:35;5.30;;;3.17;;
43813;SDS011;29669;55.706;37.656;2023-12-20T04:02:03;3.72;;;2.83;;
43813;SDS011;29669;55.706;37.656;2023-12-20T04:04:35;4.35;;;3.45;;
43813;SDS011;29669;55.706;37.656;2023-12-20T04:07:04;4.80;;;3.05;;
43813;SDS011;29669;55.706;37.656;2023-12-20T04:09:31;4.82;;;2.92;;
43813;SDS011;29669;55.706;37.656;2023-12-20T04:11:59;4.57;;;2.80;;
43813;SDS011;29669;55.706;37.656;2023-12-20T04:39:30;4.88;;;3.45;;
43813;SDS011;29669;55.706;37.656;2023-12-20T04:42:01;5.70;;;3.40;;
43813;SDS011;29669;55.706;37.656;2023-12-20T04:44:28;7.32;;;3.35;;
43813;SDS011;29669;55.706;37.656;2023-12-20T04:47:06;5.10;;;3.58;;
43813;SDS011;29669;55.706;37.656;2023-12-20T04:49:54;4.53;;;3.47;;
43813;SDS011;29669;55.706;37.656;2023-12-20T04:53:48;6.68;;;2.95;;
43813;SDS011;29669;55.706;37.656;2023-12-20T04:57:37;6.10;;;2.85;;
43813;SDS011;29669;55.706;37.656;2023-12-20T05:00:58;4.03;;;3.13;;
43813;SDS011;29669;55.706;37.656;2023-12-20T05:03:38;3.83;;;2.85;;
43813;SDS011;29669;55.706;37.656;2023-12-20T05:06:34;4.03;;;2.58;;
43813;SDS011;29669;55.706;37.656;2023-12-20T05:09:10;5.03;;;2.75;;
43813;SDS011;29669;55.706;37.656;2023-12-20T05:11:54;2.28;;;2.00;;
43813;SDS011;29669;55.706;37.656;2023-12-20T05:14:40;6.72;;;3.10;;
43813;SDS011;29669;55.706;37.656;2023-12-20T05:17:14;6.28;;;2.42;;
43813;SDS011;29669;55.706;37.656;2023-12-20T05:19:42;4.10;;;2.33;;
43813;SDS011;29669;55.706;37.656;2023-12-20T05:22:21;2.38;;;2.13;;
43813;SDS011;29669;55.706;37.656;2023-12-20T05:24:58;3.30;;;2.50;;
43813;SDS011;29669;55.706;37.656;2023-12-20T05:27:45;3.80;;;2.65;;
43813;SDS011;29669;55.706;37.656;2023-12-20T05:30:20;7.10;;;3.00;;
43813;SDS011;29669;55.706;37.656;2023-12-20T05:32:51;4.00;;;2.40;;
43813;SDS011;29669;55.706;37.656;2023-12-20T05:35:37;4.80;;;2.47;;
43813;SDS011;29669;55.706;37.656;2023-12-20T05:38:10;2.97;;;2.50;;
43813;SDS011;29669;55.706;37.656;2023-12-20T05:40:40;4.97;;;3.05;;
43813;SDS011;29669;55.706;37.656;2023-12-20T05:43:14;2.95;;;2.60;;
43813;SDS011;29669;55.706;37.656;2023-12-20T05:45:46;4.40;;;2.72;;
43813;SDS011;29669;55.706;37.656;2023-12-20T05:48:20;12.13;;;3.10;;
43813;SDS011;29669;55.706;37.656;2023-12-20T05:51:24;3.80;;;3.00;;
43813;SDS011;29669;55.706;37.656;2023-12-20T05:54:00;3.00;;;2.40;;
43813;SDS011;29669;55.706;37.656;2023-12-20T05:56:40;3.25;;;2.88;;
43813;SDS011;29669;55.706;37.656;2023-12-20T05:59:25;4.38;;;2.92;;
43813;SDS011;29669;55.706;37.656;2023-12-20T06:01:58;5.18;;;2.75;;
43813;SDS011;29669;55.706;37.656;2023-12-20T06:04:51;5.65;;;3.08;;
43813;SDS011;29669;55.706;37.656;2023-12-20T06:07:32;5.55;;;3.33;;
43813;SDS011;29669;55.706;37.656;2023-12-20T06:10:07;6.95;;;3.35;;
43813;SDS011;29669;55.706;37.656;2023-12-20T06:12:46;8.57;;;3.17;;
43813;SDS011;29669;55.706;37.656;2023-12-20T06:19:33;7.40;;;2.85;;
43813;SDS011;29669;55.706;37.656;2023-12-20T06:23:05;5.40;;;2.90;;
43813;SDS011;29669;55.706;37.656;2023-12-20T06:25:52;4.10;;;2.67;;
43813;SDS011;29669;55.706;37.656;2023-12-20T06:28:35;7.88;;;3.30;;
43813;SDS011;29669;55.706;37.656;2023-12-20T06:32:11;6.88;;;2.92;;
43813;SDS011;29669;55.706;37.656;2023-12-20T06:38:21;3.80;;;2.80;;
43813;SDS011;29669;55.706;37.656;2023-12-20T06:41:16;5.75;;;3.50;;
43813;SDS011;29669;55.706;37.656;2023-12-20T06:43:58;5.80;;;2.80;;
43813;SDS011;29669;55.706;37.656;2023-12-20T06:47:18;6.05;;;2.63;;
43813;SDS011;29669;55.706;37.656;2023-12-20T06:50:20;4.53;;;2.70;;
43813;SDS011;29669;55.706;37.656;2023-12-20T06:53:04;4.38;;;2.78;;
43813;SDS011;29669;55.706;37.656;2023-12-20T06:55:55;7.63;;;2.90;;
43813;SDS011;29669;55.706;37.656;2023-12-20T06:58:56;3.50;;;2.63;;
43813;SDS011;29669;55.706;37.656;2023-12-20T07:01:47;4.05;;;2.40;;
43813;SDS011;29669;55.706;37.656;2023-12-20T07:04:46;4.75;;;2.42;;
43813;SDS011;29669;55.706;37.656;2023-12-20T07:07:41;3.85;;;2.58;;
43813;SDS011;29669;55.706;37.656;2023-12-20T07:10:18;4.45;;;2.60;;
43813;SDS011;29669;55.706;37.656;2023-12-20T07:13:06;4.90;;;3.10;;
43813;SDS011;29669;55.706;37.656;2023-12-20T07:15:48;5.82;;;2.58;;
43813;SDS011;29669;55.706;37.656;2023-12-20T07:18:24;3.33;;;2.60;;
43813;SDS011;29669;55.706;37.656;2023-12-20T07:20:59;4.50;;;2.75;;
43813;SDS011;29669;55.706;37.656;2023-12-20T07:23:40;3.35;;;2.45;;
43813;SDS011;29669;55.706;37.656;2023-12-20T07:26:17;3.35;;;2.70;;
43813;SDS011;29669;55.706;37.656;2023-12-20T07:28:50;3.65;;;2.60;;
43813;SDS011;29669;55.706;37.656;2023-12-20T07:31:25;3.43;;;2.60;;
43813;SDS011;29669;55.706;37.656;2023-12-20T07:34:10;5.00;;;2.83;;
43813;SDS011;29669;55.706;37.656;2023-12-20T07:36:53;2.88;;;2.53;;
43813;SDS011;29669;55.706;37.656;2023-12-20T07:39:39;3.67;;;2.75;;
43813;SDS011;29669;55.706;37.656;2023-12-20T07:42:19;5.90;;;2.58;;
43813;SDS011;29669;55.706;37.656;2023-12-20T07:45:16;3.60;;;2.78;;
43813;SDS011;29669;55.706;37.656;2023-12-20T07:48:35;3.50;;;2.05;;
43813;SDS011;29669;55.706;37.656;2023-12-20T07:51:14;5.03;;;2.58;;
43813;SDS011;29669;55.706;37.656;2023-12-20T07:54:08;8.40;;;2.55;;
43813;SDS011;29669;55.706;37.656;2023-12-20T07:56:44;3.38;;;2.33;;
43813;SDS011;29669;55.706;37.656;2023-12-20T07:59:22;3.22;;;2.40;;
43813;SDS011;29669;55.706;37.656;2023-12-20T08:02:12;3.25;;;2.45;;
43813;SDS011;29669;55.706;37.656;2023-12-20T08:04:55;2.03;;;1.83;;
43813;SDS011;29669;55.706;37.656;2023-12-20T08:07:33;3.70;;;2.63;;
43813;SDS011;29669;55.706;37.656;2023-12-20T08:10:13;3.60;;;2.20;;
43813;SDS011;29669;55.706;37.656;2023-12-20T08:13:11;4.53;;;2.47;;
43813;SDS011;29669;55.706;37.656;2023-12-20T08:16:02;7.95;;;2.80;;
43813;SDS011;29669;55.706;37.656;2023-12-20T08:18:47;3.20;;;2.53;;
43813;SDS011;29669;55.706;37.656;2023-12-20T08:21:36;5.95;;;2.33;;
43813;SDS011;29669;55.706;37.656;2023-12-20T08:24:09;4.65;;;1.90;;
43813;SDS011;29669;55.706;37.656;2023-12-20T08:26:45;2.80;;;1.95;;
43813;SDS011;29669;55.706;37.656;2023-12-20T08:29:17;3.85;;;2.20;;
43813;SDS011;29669;55.706;37.656;2023-12-20T08:32:28;2.78;;;2.22;;
43813;SDS011;29669;55.706;37.656;2023-12-20T08:35:16;2.33;;;2.10;;
43813;SDS011;29669;55.706;37.656;2023-12-20T08:37:51;4.75;;;2.35;;
43813;SDS011;29669;55.706;37.656;2023-12-20T08:40:41;3.45;;;2.13;;
43813;SDS011;29669;55.706;37.656;2023-12-20T08:43:25;3.90;;;2.38;;
43813;SDS011;29669;55.706;37.656;2023-12-20T08:46:02;5.30;;;1.98;;
43813;SDS011;29669;55.706;37.656;2023-12-20T08:48:34;3.40;;;2.35;;
43813;SDS011;29669;55.706;37.656;2023-12-20T08:51:39;3.22;;;2.30;;
43813;SDS011;29669;55.706;37.656;2023-12-20T08:54:14;2.40;;;2.08;;
43813;SDS011;29669;55.706;37.656;2023-12-20T08:56:56;3.80;;;2.65;;
43813;SDS011;29669;55.706;37.656;2023-12-20T08:59:45;4.65;;;2.63;;
43813;SDS011;29669;55.706;37.656;2023-12-20T09:02:31;4.50;;;2.85;;
43813;SDS011;29669;55.706;37.656;2023-12-20T09:05:13;3.90;;;2.33;;
43813;SDS011;29669;55.706;37.656;2023-12-20T09:07:48;3.80;;;2.85;;
43813;SDS011;29669;55.706;37.656;2023-12-20T09:10:26;6.20;;;2.33;;
43813;SDS011;29669;55.706;37.656;2023-12-20T09:16:55;4.13;;;2.83;;
43813;SDS011;29669;55.706;37.656;2023-12-20T09:20:10;5.07;;;3.20;;
43813;SDS011;29669;55.706;37.656;2023-12-20T09:23:17;5.18;;;2.35;;
43813;SDS011;29669;55.706;37.656;2023-12-20T09:26:34;3.10;;;2.30;;
43813;SDS011;29669;55.706;37.656;2023-12-20T09:30:19;5.55;;;2.90;;
43813;SDS011;29669;55.706;37.656;2023-12-20T09:33:47;6.60;;;2.80;;
43813;SDS011;29669;55.706;37.656;2023-12-20T09:37:09;7.03;;;3.50;;
43813;SDS011;29669;55.706;37.656;2023-12-20T09:40:41;11.07;;;4.50;;
43813;SDS011;29669;55.706;37.656;2023-12-20T09:44:14;4.57;;;2.80;;
43813;SDS011;29669;55.706;37.656;2023-12-20T09:47:40;3.08;;;2.78;;
43813;SDS011;29669;55.706;37.656;2023-12-20T09:51:23;4.47;;;2.90;;
43813;SDS011;29669;55.706;37.656;2023-12-20T09:54:56;4.05;;;3.00;;
43813;SDS011;29669;55.706;37.656;2023-12-20T09:58:26;4.28;;;3.15;;
43813;SDS011;29669;55.706;37.656;2023-12-20T10:05:41;9.43;;;2.65;;
43813;SDS011;29669;55.706;37.656;2023-12-20T10:09:04;5.63;;;3.08;;
43813;SDS011;29669;55.706;37.656;2023-12-20T10:12:07;5.35;;;3.13;;
43813;SDS011;29669;55.706;37.656;2023-12-20T10:15:01;4.72;;;2.88;;
43813;SDS011;29669;55.706;37.656;2023-12-20T10:18:26;4.45;;;2.55;;
43813;SDS011;29669;55.706;37.656;2023-12-20T10:21:31;3.28;;;2.40;;
43813;SDS011;29669;55.706;37.656;2023-12-20T10:25:16;3.95;;;2.45;;
43813;SDS011;29669;55.706;37.656;2023-12-20T10:32:58;3.92;;;1.98;;
43813;SDS011;29669;55.706;37.656;2023-12-20T10:36:06;3.42;;;2.08;;
43813;SDS011;29669;55.706;37.656;2023-12-20T10:40:00;3.00;;;2.20;;
43813;SDS011;29669;55.706;37.656;2023-12-20T10:43:47;2.58;;;2.25;;
43813;SDS011;29669;55.706;37.656;2023-12-20T10:46:40;3.95;;;2.30;;
43813;SDS011;29669;55.706;37.656;2023-12-20T10:50:11;2.85;;;2.13;;
43813;SDS011;29669;55.706;37.656;2023-12-20T10:53:07;3.65;;;2.28;;
43813;SDS011;29669;55.706;37.656;2023-12-20T10:56:30;2.60;;;2.13;;
43813;SDS011;29669;55.706;37.656;2023-12-20T10:59:24;2.63;;;2.20;;
43813;SDS011;29669;55.706;37.656;2023-12-20T11:02:20;2.60;;;1.95;;
43813;SDS011;29669;55.706;37.656;2023-12-20T11:05:25;4.63;;;2.38;;
43813;SDS011;29669;55.706;37.656;2023-12-20T11:25:29;3.58;;;2.17;;
43813;SDS011;29669;55.706;37.656;2023-12-20T11:33:38;2.33;;;2.05;;
43813;SDS011;29669;55.706;37.656;2023-12-20T11:36:59;2.30;;;2.10;;
43813;SDS011;29669;55.706;37.656;2023-12-20T11:40:19;4.25;;;2.00;;
43813;SDS011;29669;55.706;37.656;2023-12-20T11:44:15;3.97;;;2.42;;
43813;SDS011;29669;55.706;37.656;2023-12-20T11:51:55;1.85;;;1.67;;
43813;SDS011;29669;55.706;37.656;2023-12-20T11:56:01;4.63;;;1.80;;
43813;SDS011;29669;55.706;37.656;2023-12-20T11:59:30;1.88;;;1.73;;
43813;SDS011;29669;55.706;37.656;2023-12-20T12:03:01;3.67;;;2.17;;
43813;SDS011;29669;55.706;37.656;2023-12-20T12:06:11;3.70;;;2.00;;
43813;SDS011;29669;55.706;37.656;2023-12-20T12:08:57;2.40;;;1.90;;
43813;SDS011;29669;55.706;37.656;2023-12-20T12:12:00;2.70;;;2.03;;
43813;SDS011;29669;55.706;37.656;2023-12-20T12:14:45;3.65;;;2.72;;
43813;SDS011;29669;55.706;37.656;2023-12-20T12:17:21;6.60;;;2.42;;
43813;SDS011;29669;55.706;37.656;2023-12-20T12:20:44;3.50;;;2.42;;
43813;SDS011;29669;55.706;37.656;2023-12-20T12:23:45;3.72;;;2.10;;
43813;SDS011;29669;55.706;37.656;2023-12-20T12:26:50;2.72;;;1.98;;
43813;SDS011;29669;55.706;37.656;2023-12-20T12:30:02;2.78;;;2.10;;
43813;SDS011;29669;55.706;37.656;2023-12-20T12:33:26;2.28;;;2.08;;
43813;SDS011;29669;55.706;37.656;2023-12-20T12:36:43;3.17;;;2.20;;
43813;SDS011;29669;55.706;37.656;2023-12-20T12:39:23;1.90;;;1.75;;
43813;SDS011;29669;55.706;37.656;2023-12-20T12:42:29;2.10;;;1.90;;
43813;SDS011;29669;55.706;37.656;2023-12-20T12:46:33;2.65;;;2.38;;
43813;SDS011;29669;55.706;37.656;2023-12-20T12:50:16;2.72;;;2.05;;
43813;SDS011;29669;55.706;37.656;2023-12-20T12:53:52;2.55;;;1.92;;
43813;SDS011;29669;55.706;37.656;2023-12-20T12:57:47;3.13;;;2.33;;
43813;SDS011;29669;55.706;37.656;2023-12-20T13:00:48;3.67;;;2.30;;
43813;SDS011;29669;55.706;37.656;2023-12-20T13:04:20;5.35;;;2.90;;
43813;SDS011;29669;55.706;37.656;2023-12-20T13:07:06;2.67;;;2.42;;
43813;SDS011;29669;55.706;37.656;2023-12-20T13:09:45;3.55;;;2.45;;
43813;SDS011;29669;55.706;37.656;2023-12-20T13:12:46;2.88;;;2.15;;
43813;SDS011;29669;55.706;37.656;2023-12-20T13:15:29;5.63;;;2.40;;
43813;SDS011;29669;55.706;37.656;2023-12-20T13:18:32;7.90;;;2.28;;
43813;SDS011;29669;55.706;37.656;2023-12-20T13:21:30;2.75;;;1.95;;
43813;SDS011;29669;55.706;37.656;2023-12-20T13:24:21;2.78;;;2.10;;
43813;SDS011;29669;55.706;37.656;2023-12-20T13:27:00;4.63;;;2.17;;
43813;SDS011;29669;55.706;37.656;2023-12-20T13:29:44;3.22;;;1.90;;
43813;SDS011;29669;55.706;37.656;2023-12-20T13:32:18;4.55;;;2.00;;
43813;SDS011;29669;55.706;37.656;2023-12-20T13:34:47;5.07;;;2.05;;
43813;SDS011;29669;55.706;37.656;2023-12-20T13:37:20;5.38;;;2.25;;
43813;SDS011;29669;55.706;37.656;2023-12-20T13:39:58;2.78;;;1.98;;
43813;SDS011;29669;55.706;37.656;2023-12-20T13:46:00;4.57;;;1.88;;
43813;SDS011;29669;55.706;37.656;2023-12-20T13:48:31;2.63;;;1.98;;
43813;SDS011;29669;55.706;37.656;2023-12-20T13:51:12;7.60;;;3.50;;
43813;SDS011;29669;55.706;37.656;2023-12-20T13:53:48;3.05;;;2.25;;
43813;SDS011;29669;55.706;37.656;2023-12-20T13:56:22;6.30;;;2.42;;
43813;SDS011;29669;55.706;37.656;2023-12-20T13:58:52;3.75;;;2.50;;
43813;SDS011;29669;55.706;37.656;2023-12-20T14:01:25;2.55;;;2.28;;
43813;SDS011;29669;55.706;37.656;2023-12-20T14:04:03;10.00;;;2.60;;
43813;SDS011;29669;55.706;37.656;2023-12-20T14:06:41;5.82;;;2.65;;
43813;SDS011;29669;55.706;37.656;2023-12-20T14:11:41;4.65;;;2.75;;
43813;SDS011;29669;55.706;37.656;2023-12-20T14:14:38;3.28;;;2.35;;
43813;SDS011;29669;55.706;37.656;2023-12-20T14:17:24;2.80;;;2.10;;
43813;SDS011;29669;55.706;37.656;2023-12-20T14:20:00;3.53;;;2.10;;
43813;SDS011;29669;55.706;37.656;2023-12-20T14:22:36;5.47;;;2.20;;
43813;SDS011;29669;55.706;37.656;2023-12-20T14:25:12;4.50;;;2.03;;
43813;SDS011;29669;55.706;37.656;2023-12-20T14:27:53;3.83;;;2.40;;
43813;SDS011;29669;55.706;37.656;2023-12-20T14:30:36;5.85;;;3.00;;
43813;SDS011;29669;55.706;37.656;2023-12-20T14:33:31;1.98;;;1.85;;
43813;SDS011;29669;55.706;37.656;2023-12-20T14:36:12;6.63;;;2.20;;
43813;SDS011;29669;55.706;37.656;2023-12-20T14:38:58;6.47;;;2.63;;
43813;SDS011;29669;55.706;37.656;2023-12-20T14:41:42;3.90;;;2.60;;
43813;SDS011;29669;55.706;37.656;2023-12-20T14:44:20;4.65;;;3.03;;
43813;SDS011;29669;55.706;37.656;2023-12-20T14:47:25;5.43;;;2.70;;
43813;SDS011;29669;55.706;37.656;2023-12-20T14:50:10;2.90;;;2.35;;
43813;SDS011;29669;55.706;37.656;2023-12-20T14:52:45;6.03;;;2.80;;
43813;SDS011;29669;55.706;37.656;2023-12-20T14:55:30;4.95;;;2.92;;
43813;SDS011;29669;55.706;37.656;2023-12-20T14:58:00;3.05;;;2.20;;
43813;SDS011;29669;55.706;37.656;2023-12-20T15:00:58;2.92;;;2.30;;
43813;SDS011;29669;55.706;37.656;2023-12-20T15:03:37;5.03;;;2.67;;
43813;SDS011;29669;55.706;37.656;2023-12-20T15:06:17;3.80;;;2.07;;
43813;SDS011;29669;55.706;37.656;2023-12-20T15:08:52;2.75;;;1.90;;
43813;SDS011;29669;55.706;37.656;2023-12-20T15:11:26;3.40;;;2.45;;
43813;SDS011;29669;55.706;37.656;2023-12-20T15:14:15;3.90;;;2.15;;
43813;SDS011;29669;55.706;37.656;2023-12-20T15:16:49;2.78;;;2.08;;
43813;SDS011;29669;55.706;37.656;2023-12-20T15:19:23;3.97;;;2.30;;
43813;SDS011;29669;55.706;37.656;2023-12-20T15:22:03;2.97;;;2.08;;
43813;SDS011;29669;55.706;37.656;2023-12-20T15:24:38;5.45;;;2.08;;
43813;SDS011;29669;55.706;37.656;2023-12-20T15:27:09;3.45;;;1.80;;
43813;SDS011;29669;55.706;37.656;2023-12-20T15:29:43;2.53;;;2.15;;
43813;SDS011;29669;55.706;37.656;2023-12-20T15:32:45;2.17;;;1.70;;
43813;SDS011;29669;55.706;37.656;2023-12-20T15:38:56;3.10;;;2.00;;
43813;SDS011;29669;55.706;37.656;2023-12-20T15:42:28;3.45;;;2.13;;
43813;SDS011;29669;55.706;37.656;2023-12-20T15:46:10;4.18;;;2.67;;
43813;SDS011;29669;55.706;37.656;2023-12-20T15:49:37;3.08;;;2.30;;
43813;SDS011;29669;55.706;37.656;2023-12-20T15:52:48;3.67;;;2.40;;
43813;SDS011;29669;55.706;37.656;2023-12-20T15:56:27;3.88;;;2.40;;
43813;SDS011;29669;55.706;37.656;2023-12-20T15:59:49;7.05;;;3.00;;
43813;SDS011;29669;55.706;37.656;2023-12-20T16:03:14;2.10;;;1.90;;
43813;SDS011;29669;55.706;37.656;2023-12-20T16:06:17;4.55;;;2.28;;
43813;SDS011;29669;55.706;37.656;2023-12-20T16:08:49;4.38;;;3.17;;
43813;SDS011;29669;55.706;37.656;2023-12-20T16:11:31;3.75;;;2.20;;
43813;SDS011;29669;55.706;37.656;2023-12-20T16:14:04;3.05;;;2.30;;
43813;SDS011;29669;55.706;37.656;2023-12-20T16:16:45;5.18;;;2.83;;
43813;SDS011;29669;55.706;37.656;2023-12-20T16:19:21;2.60;;;2.08;;
43813;SDS011;29669;55.706;37.656;2023-12-20T16:21:56;3.58;;;2.50;;
43813;SDS011;29669;55.706;37.656;2023-12-20T16:24:32;2.70;;;2.35;;
43813;SDS011;29669;55.706;37.656;2023-12-20T16:27:11;3.15;;;2.17;;
43813;SDS011;29669;55.706;37.656;2023-12-20T16:29:40;3.17;;;2.10;;
43813;SDS011;29669;55.706;37.656;2023-12-20T16:32:07;3.17;;;2.55;;
43813;SDS011;29669;55.706;37.656;2023-12-20T16:34:35;5.95;;;2.75;;
43813;SDS011;29669;55.706;37.656;2023-12-20T16:37:03;3.28;;;2.40;;
43813;SDS011;29669;55.706;37.656;2023-12-20T16:39:30;2.70;;;2.42;;
43813;SDS011;29669;55.706;37.656;2023-12-20T16:41:58;2.83;;;2.20;;
43813;SDS011;29669;55.706;37.656;2023-12-20T16:44:26;2.85;;;2.33;;
43813;SDS011;29669;55.706;37.656;2023-12-20T16:46:53;2.65;;;2.05;;
43813;SDS011;29669;55.706;37.656;2023-12-20T16:49:21;2.80;;;2.28;;
43813;SDS011;29669;55.706;37.656;2023-12-20T16:51:48;4.53;;;1.90;;
43813;SDS011;29669;55.706;37.656;2023-12-20T16:54:16;5.10;;;1.88;;
43813;SDS011;29669;55.706;37.656;2023-12-20T16:56:43;2.92;;;2.30;;
43813;SDS011;29669;55.706;37.656;2023-12-20T16:59:10;5.63;;;2.60;;
43813;SDS011;29669;55.706;37.656;2023-12-20T17:01:38;2.53;;;2.08;;
43813;SDS011;29669;55.706;37.656;2023-12-20T17:04:10;5.85;;;2.33;;
43813;SDS011;29669;55.706;37.656;2023-12-20T17:06:37;4.85;;;2.20;;
43813;SDS011;29669;55.706;37.656;2023-12-20T17:09:05;5.15;;;2.00;;
43813;SDS011;29669;55.706;37.656;2023-12-20T17:11:34;2.75;;;2.10;;
43813;SDS011;29669;55.706;37.656;2023-12-20T17:14:02;2.13;;;1.92;;
43813;SDS011;29669;55.706;37.656;2023-12-20T17:16:30;3.38;;;2.00;;
43813;SDS011;29669;55.706;37.656;2023-12-20T17:18:58;3.80;;;2.17;;
43813;SDS011;29669;55.706;37.656;2023-12-20T17:21:25;2.08;;;1.80;;
43813;SDS011;29669;55.706;37.656;2023-12-20T17:23:53;6.95;;;2.10;;
43813;SDS011;29669;55.706;37.656;2023-12-20T17:26:20;2.58;;;1.73;;
43813;SDS011;29669;55.706;37.656;2023-12-20T17:28:48;3.40;;;1.98;;
43813;SDS011;29669;55.706;37.656;2023-12-20T17:31:15;2.22;;;1.67;;
43813;SDS011;29669;55.706;37.656;2023-12-20T17:33:44;1.63;;;1.50;;
43813;SDS011;29669;55.706;37.656;2023-12-20T17:36:11;2.13;;;1.80;;
43813;SDS011;29669;55.706;37.656;2023-12-20T17:38:41;3.33;;;1.77;;